sensor_id;sensor_type;location;lat;lon;timestamp;P1;durP1;ratioP1;P2;durP2;ratioP2
5690;SDS011;2870;42.680;23.364;2023-01-08T00:01:14;91.37;;;47.47;;
5690;SDS011;2870;42.680;23.364;2023-01-08T00:03:41;103.13;;;48.60;;
5690;SDS011;2870;42.680;23.364;2023-01-08T00:06:09;94.50;;;45.30;;
5690;SDS011;2870;42.680;23.364;2023-01-08T00:08:39;107.50;;;50.20;;
5690;SDS011;2870;42.680;23.364;2023-01-08T00:11:06;103.33;;;48.87;;
5690;SDS011;2870;42.680;23.364;2023-01-08T00:13:33;112.33;;;50.27;;
5690;SDS011;2870;42.680;23.364;2023-01-08T00:16:05;103.83;;;50.23;;
5690;SDS011;2870;42.680;23.364;2023-01-08T00:18:33;102.47;;;49.73;;
5690;SDS011;2870;42.680;23.364;2023-01-08T00:21:00;107.80;;;49.77;;
5690;SDS011;2870;42.680;23.364;2023-01-08T00:23:27;106.85;;;50.10;;
5690;SDS011;2870;42.680;23.364;2023-01-08T00:25:55;87.10;;;46.92;;
5690;SDS011;2870;42.680;23.364;2023-01-08T00:28:22;79.20;;;40.60;;
5690;SDS011;2870;42.680;23.364;2023-01-08T00:30:49;74.27;;;36.53;;
5690;SDS011;2870;42.680;23.364;2023-01-08T00:33:17;76.00;;;38.87;;
5690;SDS011;2870;42.680;23.364;2023-01-08T00:35:44;84.33;;;37.03;;
5690;SDS011;2870;42.680;23.364;2023-01-08T00:38:10;63.67;;;33.22;;
5690;SDS011;2870;42.680;23.364;2023-01-08T00:40:37;60.13;;;32.50;;
5690;SDS011;2870;42.680;23.364;2023-01-08T00:43:05;74.78;;;39.17;;
5690;SDS011;2870;42.680;23.364;2023-01-08T00:45:32;71.10;;;37.92;;
5690;SDS011;2870;42.680;23.364;2023-01-08T00:47:59;79.63;;;36.90;;
5690;SDS011;2870;42.680;23.364;2023-01-08T00:50:27;66.00;;;33.97;;
5690;SDS011;2870;42.680;23.364;2023-01-08T00:52:54;65.78;;;32.90;;
5690;SDS011;2870;42.680;23.364;2023-01-08T00:55:21;66.63;;;34.30;;
5690;SDS011;2870;42.680;23.364;2023-01-08T00:57:48;71.30;;;38.47;;
5690;SDS011;2870;42.680;23.364;2023-01-08T01:00:15;100.93;;;41.78;;
5690;SDS011;2870;42.680;23.364;2023-01-08T01:02:42;73.87;;;40.47;;
5690;SDS011;2870;42.680;23.364;2023-01-08T01:05:10;73.90;;;38.03;;
5690;SDS011;2870;42.680;23.364;2023-01-08T01:07:40;89.85;;;43.70;;
5690;SDS011;2870;42.680;23.364;2023-01-08T01:10:08;88.83;;;42.57;;
5690;SDS011;2870;42.680;23.364;2023-01-08T01:12:36;79.75;;;42.30;;
5690;SDS011;2870;42.680;23.364;2023-01-08T01:15:04;90.30;;;42.63;;
5690;SDS011;2870;42.680;23.364;2023-01-08T01:17:32;80.57;;;43.15;;
5690;SDS011;2870;42.680;23.364;2023-01-08T01:19:58;81.70;;;44.67;;
5690;SDS011;2870;42.680;23.364;2023-01-08T01:22:25;90.47;;;42.97;;
5690;SDS011;2870;42.680;23.364;2023-01-08T01:24:53;90.45;;;47.08;;
5690;SDS011;2870;42.680;23.364;2023-01-08T01:27:20;103.05;;;47.45;;
5690;SDS011;2870;42.680;23.364;2023-01-08T01:29:47;101.95;;;44.80;;
5690;SDS011;2870;42.680;23.364;2023-01-08T01:32:14;89.07;;;44.80;;
5690;SDS011;2870;42.680;23.364;2023-01-08T01:34:41;83.28;;;44.38;;
5690;SDS011;2870;42.680;23.364;2023-01-08T01:37:08;87.28;;;44.50;;
5690;SDS011;2870;42.680;23.364;2023-01-08T01:39:37;89.95;;;47.03;;
5690;SDS011;2870;42.680;23.364;2023-01-08T01:42:05;96.65;;;49.05;;
5690;SDS011;2870;42.680;23.364;2023-01-08T01:44:52;92.15;;;47.08;;
5690;SDS011;2870;42.680;23.364;2023-01-08T01:47:19;89.93;;;44.88;;
5690;SDS011;2870;42.680;23.364;2023-01-08T01:49:52;87.78;;;47.00;;
5690;SDS011;2870;42.680;23.364;2023-01-08T01:52:23;93.00;;;49.47;;
5690;SDS011;2870;42.680;23.364;2023-01-08T01:54:53;90.40;;;45.33;;
5690;SDS011;2870;42.680;23.364;2023-01-08T01:57:21;113.53;;;48.28;;
5690;SDS011;2870;42.680;23.364;2023-01-08T01:59:49;88.80;;;48.42;;
5690;SDS011;2870;42.680;23.364;2023-01-08T02:02:16;104.50;;;48.60;;
5690;SDS011;2870;42.680;23.364;2023-01-08T02:04:43;86.80;;;46.83;;
5690;SDS011;2870;42.680;23.364;2023-01-08T02:07:11;87.05;;;43.42;;
5690;SDS011;2870;42.680;23.364;2023-01-08T02:09:42;96.30;;;47.53;;
5690;SDS011;2870;42.680;23.364;2023-01-08T02:12:14;82.07;;;45.10;;
5690;SDS011;2870;42.680;23.364;2023-01-08T02:14:51;88.10;;;45.10;;
5690;SDS011;2870;42.680;23.364;2023-01-08T02:17:25;86.65;;;42.47;;
5690;SDS011;2870;42.680;23.364;2023-01-08T02:20:02;72.20;;;38.58;;
5690;SDS011;2870;42.680;23.364;2023-01-08T02:22:36;70.88;;;38.60;;
5690;SDS011;2870;42.680;23.364;2023-01-08T02:25:14;68.57;;;37.53;;
5690;SDS011;2870;42.680;23.364;2023-01-08T02:27:51;62.92;;;34.70;;
5690;SDS011;2870;42.680;23.364;2023-01-08T02:30:22;63.85;;;33.83;;
5690;SDS011;2870;42.680;23.364;2023-01-08T02:32:50;65.85;;;31.85;;
5690;SDS011;2870;42.680;23.364;2023-01-08T02:35:17;69.97;;;35.20;;
5690;SDS011;2870;42.680;23.364;2023-01-08T02:37:43;65.07;;;33.85;;
5690;SDS011;2870;42.680;23.364;2023-01-08T02:40:15;69.43;;;34.95;;
5690;SDS011;2870;42.680;23.364;2023-01-08T02:42:50;74.20;;;35.28;;
5690;SDS011;2870;42.680;23.364;2023-01-08T02:45:30;58.72;;;31.25;;
5690;SDS011;2870;42.680;23.364;2023-01-08T02:48:04;47.65;;;28.13;;
5690;SDS011;2870;42.680;23.364;2023-01-08T02:50:35;56.10;;;30.40;;
5690;SDS011;2870;42.680;23.364;2023-01-08T02:53:08;51.10;;;28.83;;
5690;SDS011;2870;42.680;23.364;2023-01-08T02:55:39;45.75;;;25.98;;
5690;SDS011;2870;42.680;23.364;2023-01-08T02:58:09;46.40;;;27.70;;
5690;SDS011;2870;42.680;23.364;2023-01-08T03:00:37;63.03;;;30.40;;
5690;SDS011;2870;42.680;23.364;2023-01-08T03:03:08;72.85;;;34.33;;
5690;SDS011;2870;42.680;23.364;2023-01-08T03:05:38;68.50;;;38.20;;
5690;SDS011;2870;42.680;23.364;2023-01-08T03:08:07;59.08;;;33.97;;
5690;SDS011;2870;42.680;23.364;2023-01-08T03:10:34;69.32;;;37.92;;
5690;SDS011;2870;42.680;23.364;2023-01-08T03:13:04;76.65;;;38.33;;
5690;SDS011;2870;42.680;23.364;2023-01-08T03:15:39;71.35;;;36.67;;
5690;SDS011;2870;42.680;23.364;2023-01-08T03:18:12;69.97;;;36.13;;
5690;SDS011;2870;42.680;23.364;2023-01-08T03:20:44;66.38;;;35.20;;
5690;SDS011;2870;42.680;23.364;2023-01-08T03:23:13;72.03;;;37.53;;
5690;SDS011;2870;42.680;23.364;2023-01-08T03:25:42;70.05;;;37.88;;
5690;SDS011;2870;42.680;23.364;2023-01-08T03:28:13;90.35;;;44.70;;
5690;SDS011;2870;42.680;23.364;2023-01-08T03:30:46;84.70;;;41.67;;
5690;SDS011;2870;42.680;23.364;2023-01-08T03:33:15;81.32;;;45.00;;
5690;SDS011;2870;42.680;23.364;2023-01-08T03:35:46;75.78;;;43.72;;
5690;SDS011;2870;42.680;23.364;2023-01-08T03:38:17;80.85;;;45.58;;
5690;SDS011;2870;42.680;23.364;2023-01-08T03:40:49;83.20;;;45.35;;
5690;SDS011;2870;42.680;23.364;2023-01-08T03:43:19;98.30;;;49.35;;
5690;SDS011;2870;42.680;23.364;2023-01-08T03:45:48;110.28;;;50.08;;
5690;SDS011;2870;42.680;23.364;2023-01-08T03:48:19;88.70;;;45.65;;
5690;SDS011;2870;42.680;23.364;2023-01-08T03:50:47;86.55;;;44.70;;
5690;SDS011;2870;42.680;23.364;2023-01-08T03:53:14;88.93;;;45.55;;
5690;SDS011;2870;42.680;23.364;2023-01-08T03:55:41;99.40;;;46.60;;
5690;SDS011;2870;42.680;23.364;2023-01-08T03:58:08;94.10;;;46.25;;
5690;SDS011;2870;42.680;23.364;2023-01-08T04:00:35;89.35;;;44.95;;
5690;SDS011;2870;42.680;23.364;2023-01-08T04:03:03;93.30;;;49.17;;
5690;SDS011;2870;42.680;23.364;2023-01-08T04:05:31;93.63;;;50.63;;
5690;SDS011;2870;42.680;23.364;2023-01-08T04:07:57;94.25;;;45.92;;
5690;SDS011;2870;42.680;23.364;2023-01-08T04:10:24;92.13;;;51.28;;
5690;SDS011;2870;42.680;23.364;2023-01-08T04:12:51;106.22;;;55.50;;
5690;SDS011;2870;42.680;23.364;2023-01-08T04:15:18;112.40;;;56.05;;
5690;SDS011;2870;42.680;23.364;2023-01-08T04:17:46;99.60;;;52.58;;
5690;SDS011;2870;42.680;23.364;2023-01-08T04:20:14;93.55;;;49.50;;
5690;SDS011;2870;42.680;23.364;2023-01-08T04:22:41;100.82;;;49.50;;
5690;SDS011;2870;42.680;23.364;2023-01-08T04:25:08;94.97;;;51.22;;
5690;SDS011;2870;42.680;23.364;2023-01-08T04:27:35;101.07;;;51.33;;
5690;SDS011;2870;42.680;23.364;2023-01-08T04:30:02;83.70;;;40.90;;
5690;SDS011;2870;42.680;23.364;2023-01-08T04:32:29;70.13;;;41.38;;
5690;SDS011;2870;42.680;23.364;2023-01-08T04:34:56;87.10;;;45.17;;
5690;SDS011;2870;42.680;23.364;2023-01-08T04:37:25;86.50;;;41.40;;
5690;SDS011;2870;42.680;23.364;2023-01-08T04:39:52;74.90;;;39.58;;
5690;SDS011;2870;42.680;23.364;2023-01-08T04:42:18;87.03;;;44.75;;
5690;SDS011;2870;42.680;23.364;2023-01-08T04:44:45;112.80;;;48.72;;
5690;SDS011;2870;42.680;23.364;2023-01-08T04:47:12;87.15;;;46.03;;
5690;SDS011;2870;42.680;23.364;2023-01-08T04:49:39;93.97;;;46.53;;
5690;SDS011;2870;42.680;23.364;2023-01-08T04:52:05;93.70;;;47.17;;
5690;SDS011;2870;42.680;23.364;2023-01-08T04:54:34;98.75;;;46.03;;
5690;SDS011;2870;42.680;23.364;2023-01-08T04:57:00;97.25;;;47.65;;
5690;SDS011;2870;42.680;23.364;2023-01-08T04:59:27;93.90;;;46.95;;
5690;SDS011;2870;42.680;23.364;2023-01-08T05:01:54;106.72;;;48.70;;
5690;SDS011;2870;42.680;23.364;2023-01-08T05:04:21;99.35;;;44.03;;
5690;SDS011;2870;42.680;23.364;2023-01-08T05:06:48;92.05;;;45.55;;
5690;SDS011;2870;42.680;23.364;2023-01-08T05:09:14;87.25;;;43.80;;
5690;SDS011;2870;42.680;23.364;2023-01-08T05:11:42;85.93;;;42.65;;
5690;SDS011;2870;42.680;23.364;2023-01-08T05:14:09;90.55;;;43.60;;
5690;SDS011;2870;42.680;23.364;2023-01-08T05:16:36;89.57;;;45.05;;
5690;SDS011;2870;42.680;23.364;2023-01-08T05:19:03;85.28;;;42.92;;
5690;SDS011;2870;42.680;23.364;2023-01-08T05:21:30;78.68;;;42.65;;
5690;SDS011;2870;42.680;23.364;2023-01-08T05:23:57;75.30;;;42.80;;
5690;SDS011;2870;42.680;23.364;2023-01-08T05:26:23;84.22;;;43.38;;
5690;SDS011;2870;42.680;23.364;2023-01-08T05:28:52;99.03;;;44.17;;
5690;SDS011;2870;42.680;23.364;2023-01-08T05:31:19;78.90;;;42.03;;
5690;SDS011;2870;42.680;23.364;2023-01-08T05:33:46;74.40;;;42.13;;
5690;SDS011;2870;42.680;23.364;2023-01-08T05:36:13;90.07;;;44.67;;
5690;SDS011;2870;42.680;23.364;2023-01-08T05:38:39;75.65;;;40.55;;
5690;SDS011;2870;42.680;23.364;2023-01-08T05:41:06;93.10;;;43.72;;
5690;SDS011;2870;42.680;23.364;2023-01-08T05:43:33;73.20;;;41.15;;
5690;SDS011;2870;42.680;23.364;2023-01-08T05:46:03;91.00;;;43.90;;
5690;SDS011;2870;42.680;23.364;2023-01-08T05:48:31;85.50;;;43.10;;
5690;SDS011;2870;42.680;23.364;2023-01-08T05:50:58;74.70;;;41.15;;
5690;SDS011;2870;42.680;23.364;2023-01-08T05:53:25;83.80;;;40.92;;
5690;SDS011;2870;42.680;23.364;2023-01-08T05:55:56;82.38;;;42.58;;
5690;SDS011;2870;42.680;23.364;2023-01-08T05:58:24;83.20;;;41.33;;
5690;SDS011;2870;42.680;23.364;2023-01-08T06:00:51;76.55;;;43.10;;
5690;SDS011;2870;42.680;23.364;2023-01-08T06:03:20;79.38;;;41.15;;
5690;SDS011;2870;42.680;23.364;2023-01-08T06:05:47;75.85;;;40.38;;
5690;SDS011;2870;42.680;23.364;2023-01-08T06:08:14;70.80;;;40.40;;
5690;SDS011;2870;42.680;23.364;2023-01-08T06:10:41;77.57;;;41.08;;
5690;SDS011;2870;42.680;23.364;2023-01-08T06:13:08;76.68;;;39.88;;
5690;SDS011;2870;42.680;23.364;2023-01-08T06:15:36;73.10;;;40.13;;
5690;SDS011;2870;42.680;23.364;2023-01-08T06:18:03;86.35;;;43.40;;
5690;SDS011;2870;42.680;23.364;2023-01-08T06:20:31;83.15;;;41.17;;
5690;SDS011;2870;42.680;23.364;2023-01-08T06:22:58;77.53;;;43.38;;
5690;SDS011;2870;42.680;23.364;2023-01-08T06:25:25;82.63;;;41.70;;
5690;SDS011;2870;42.680;23.364;2023-01-08T06:27:51;89.38;;;47.15;;
5690;SDS011;2870;42.680;23.364;2023-01-08T06:30:18;95.93;;;50.90;;
5690;SDS011;2870;42.680;23.364;2023-01-08T06:32:45;101.25;;;53.30;;
5690;SDS011;2870;42.680;23.364;2023-01-08T06:35:12;100.05;;;50.92;;
5690;SDS011;2870;42.680;23.364;2023-01-08T06:37:40;107.18;;;52.97;;
5690;SDS011;2870;42.680;23.364;2023-01-08T06:40:07;123.90;;;58.63;;
5690;SDS011;2870;42.680;23.364;2023-01-08T06:42:35;100.05;;;52.00;;
5690;SDS011;2870;42.680;23.364;2023-01-08T06:45:01;94.18;;;47.55;;
5690;SDS011;2870;42.680;23.364;2023-01-08T06:47:28;87.43;;;48.85;;
5690;SDS011;2870;42.680;23.364;2023-01-08T06:49:55;86.45;;;47.13;;
5690;SDS011;2870;42.680;23.364;2023-01-08T06:52:23;91.60;;;45.15;;
5690;SDS011;2870;42.680;23.364;2023-01-08T06:54:51;82.07;;;42.20;;
5690;SDS011;2870;42.680;23.364;2023-01-08T06:57:18;72.07;;;37.80;;
5690;SDS011;2870;42.680;23.364;2023-01-08T06:59:45;71.65;;;37.75;;
5690;SDS011;2870;42.680;23.364;2023-01-08T07:02:12;58.40;;;32.35;;
5690;SDS011;2870;42.680;23.364;2023-01-08T07:04:40;60.20;;;33.75;;
5690;SDS011;2870;42.680;23.364;2023-01-08T07:07:07;62.58;;;33.95;;
5690;SDS011;2870;42.680;23.364;2023-01-08T07:09:34;67.30;;;37.75;;
5690;SDS011;2870;42.680;23.364;2023-01-08T07:12:02;75.70;;;37.38;;
5690;SDS011;2870;42.680;23.364;2023-01-08T07:14:29;69.43;;;40.80;;
5690;SDS011;2870;42.680;23.364;2023-01-08T07:16:56;68.57;;;40.10;;
5690;SDS011;2870;42.680;23.364;2023-01-08T07:19:23;76.95;;;41.25;;
5690;SDS011;2870;42.680;23.364;2023-01-08T07:21:50;80.93;;;43.22;;
5690;SDS011;2870;42.680;23.364;2023-01-08T07:24:16;72.65;;;43.15;;
5690;SDS011;2870;42.680;23.364;2023-01-08T07:26:43;78.47;;;40.83;;
5690;SDS011;2870;42.680;23.364;2023-01-08T07:29:11;79.70;;;42.05;;
5690;SDS011;2870;42.680;23.364;2023-01-08T07:31:38;80.53;;;44.58;;
5690;SDS011;2870;42.680;23.364;2023-01-08T07:34:05;74.60;;;42.65;;
5690;SDS011;2870;42.680;23.364;2023-01-08T07:36:31;83.07;;;45.63;;
5690;SDS011;2870;42.680;23.364;2023-01-08T07:38:58;73.60;;;41.97;;
5690;SDS011;2870;42.680;23.364;2023-01-08T07:41:25;68.35;;;39.80;;
5690;SDS011;2870;42.680;23.364;2023-01-08T07:43:52;77.78;;;41.92;;
5690;SDS011;2870;42.680;23.364;2023-01-08T07:46:21;66.97;;;40.13;;
5690;SDS011;2870;42.680;23.364;2023-01-08T07:48:48;68.78;;;36.55;;
5690;SDS011;2870;42.680;23.364;2023-01-08T07:51:14;62.83;;;36.00;;
5690;SDS011;2870;42.680;23.364;2023-01-08T07:53:41;72.47;;;38.40;;
5690;SDS011;2870;42.680;23.364;2023-01-08T07:56:08;68.30;;;34.00;;
5690;SDS011;2870;42.680;23.364;2023-01-08T07:58:36;63.20;;;36.40;;
5690;SDS011;2870;42.680;23.364;2023-01-08T08:01:03;67.30;;;38.17;;
5690;SDS011;2870;42.680;23.364;2023-01-08T08:03:34;76.13;;;35.50;;
5690;SDS011;2870;42.680;23.364;2023-01-08T08:06:01;62.00;;;35.23;;
5690;SDS011;2870;42.680;23.364;2023-01-08T08:08:27;61.55;;;35.50;;
5690;SDS011;2870;42.680;23.364;2023-01-08T08:10:54;82.10;;;41.10;;
5690;SDS011;2870;42.680;23.364;2023-01-08T08:13:21;82.25;;;39.10;;
5690;SDS011;2870;42.680;23.364;2023-01-08T08:15:48;70.10;;;37.73;;
5690;SDS011;2870;42.680;23.364;2023-01-08T08:18:14;59.90;;;34.40;;
5690;SDS011;2870;42.680;23.364;2023-01-08T08:20:43;60.13;;;35.08;;
5690;SDS011;2870;42.680;23.364;2023-01-08T08:23:10;63.78;;;32.88;;
5690;SDS011;2870;42.680;23.364;2023-01-08T08:25:39;72.03;;;35.30;;
5690;SDS011;2870;42.680;23.364;2023-01-08T08:28:08;62.77;;;33.40;;
5690;SDS011;2870;42.680;23.364;2023-01-08T08:30:36;61.20;;;36.57;;
5690;SDS011;2870;42.680;23.364;2023-01-08T08:33:04;69.03;;;38.63;;
5690;SDS011;2870;42.680;23.364;2023-01-08T08:35:32;63.33;;;36.50;;
5690;SDS011;2870;42.680;23.364;2023-01-08T08:38:01;60.93;;;36.00;;
5690;SDS011;2870;42.680;23.364;2023-01-08T08:40:28;68.57;;;37.70;;
5690;SDS011;2870;42.680;23.364;2023-01-08T08:42:56;64.93;;;36.30;;
5690;SDS011;2870;42.680;23.364;2023-01-08T08:45:23;62.70;;;35.43;;
5690;SDS011;2870;42.680;23.364;2023-01-08T08:47:50;76.23;;;38.53;;
5690;SDS011;2870;42.680;23.364;2023-01-08T08:50:17;64.40;;;36.97;;
5690;SDS011;2870;42.680;23.364;2023-01-08T08:52:45;71.27;;;40.00;;
5690;SDS011;2870;42.680;23.364;2023-01-08T08:55:14;74.50;;;40.60;;
5690;SDS011;2870;42.680;23.364;2023-01-08T08:57:42;72.30;;;43.40;;
5690;SDS011;2870;42.680;23.364;2023-01-08T09:00:10;81.33;;;46.30;;
5690;SDS011;2870;42.680;23.364;2023-01-08T09:02:37;80.67;;;43.80;;
5690;SDS011;2870;42.680;23.364;2023-01-08T09:05:04;87.10;;;47.40;;
5690;SDS011;2870;42.680;23.364;2023-01-08T09:07:31;71.43;;;42.10;;
5690;SDS011;2870;42.680;23.364;2023-01-08T09:09:58;78.07;;;43.20;;
5690;SDS011;2870;42.680;23.364;2023-01-08T09:12:26;92.00;;;46.60;;
5690;SDS011;2870;42.680;23.364;2023-01-08T09:14:53;83.17;;;44.13;;
5690;SDS011;2870;42.680;23.364;2023-01-08T09:17:21;48.97;;;30.80;;
5690;SDS011;2870;42.680;23.364;2023-01-08T09:19:49;44.77;;;28.10;;
5690;SDS011;2870;42.680;23.364;2023-01-08T09:22:16;44.47;;;25.20;;
5690;SDS011;2870;42.680;23.364;2023-01-08T09:28:00;37.53;;;20.40;;
5690;SDS011;2870;42.680;23.364;2023-01-08T09:30:28;45.80;;;28.37;;
5690;SDS011;2870;42.680;23.364;2023-01-08T09:32:55;37.80;;;22.87;;
5690;SDS011;2870;42.680;23.364;2023-01-08T09:35:23;37.50;;;22.43;;
5690;SDS011;2870;42.680;23.364;2023-01-08T09:37:50;31.67;;;20.43;;
5690;SDS011;2870;42.680;23.364;2023-01-08T09:40:17;47.03;;;23.90;;
5690;SDS011;2870;42.680;23.364;2023-01-08T09:42:45;44.13;;;22.60;;
5690;SDS011;2870;42.680;23.364;2023-01-08T09:45:21;30.67;;;20.03;;
5690;SDS011;2870;42.680;23.364;2023-01-08T09:47:52;31.00;;;19.97;;
5690;SDS011;2870;42.680;23.364;2023-01-08T09:50:20;32.20;;;17.50;;
5690;SDS011;2870;42.680;23.364;2023-01-08T09:52:49;31.53;;;17.10;;
5690;SDS011;2870;42.680;23.364;2023-01-08T09:55:16;25.30;;;16.27;;
5690;SDS011;2870;42.680;23.364;2023-01-08T09:57:43;27.23;;;18.30;;
5690;SDS011;2870;42.680;23.364;2023-01-08T10:00:12;33.87;;;18.03;;
5690;SDS011;2870;42.680;23.364;2023-01-08T10:02:41;35.07;;;21.60;;
5690;SDS011;2870;42.680;23.364;2023-01-08T10:05:11;29.10;;;19.97;;
5690;SDS011;2870;42.680;23.364;2023-01-08T10:07:40;30.90;;;20.37;;
5690;SDS011;2870;42.680;23.364;2023-01-08T10:10:09;35.00;;;19.87;;
5690;SDS011;2870;42.680;23.364;2023-01-08T10:12:43;39.60;;;21.70;;
5690;SDS011;2870;42.680;23.364;2023-01-08T10:15:13;37.03;;;22.43;;
5690;SDS011;2870;42.680;23.364;2023-01-08T10:17:44;38.60;;;23.23;;
5690;SDS011;2870;42.680;23.364;2023-01-08T10:20:15;43.00;;;23.20;;
5690;SDS011;2870;42.680;23.364;2023-01-08T10:22:43;48.27;;;28.43;;
5690;SDS011;2870;42.680;23.364;2023-01-08T10:25:13;45.17;;;27.87;;
5690;SDS011;2870;42.680;23.364;2023-01-08T10:27:46;60.47;;;29.87;;
5690;SDS011;2870;42.680;23.364;2023-01-08T10:30:14;46.57;;;29.20;;
5690;SDS011;2870;42.680;23.364;2023-01-08T10:32:49;47.63;;;29.37;;
5690;SDS011;2870;42.680;23.364;2023-01-08T10:35:19;44.03;;;28.10;;
5690;SDS011;2870;42.680;23.364;2023-01-08T10:37:49;43.90;;;27.60;;
5690;SDS011;2870;42.680;23.364;2023-01-08T10:40:19;44.87;;;27.27;;
5690;SDS011;2870;42.680;23.364;2023-01-08T10:42:48;44.10;;;29.00;;
5690;SDS011;2870;42.680;23.364;2023-01-08T10:45:17;44.03;;;27.23;;
5690;SDS011;2870;42.680;23.364;2023-01-08T10:47:49;39.80;;;24.80;;
5690;SDS011;2870;42.680;23.364;2023-01-08T10:50:21;40.20;;;24.83;;
5690;SDS011;2870;42.680;23.364;2023-01-08T10:52:51;42.63;;;23.50;;
5690;SDS011;2870;42.680;23.364;2023-01-08T10:55:23;37.57;;;24.43;;
5690;SDS011;2870;42.680;23.364;2023-01-08T10:57:52;39.13;;;24.20;;
5690;SDS011;2870;42.680;23.364;2023-01-08T11:00:21;49.77;;;26.40;;
5690;SDS011;2870;42.680;23.364;2023-01-08T11:02:51;46.60;;;26.77;;
5690;SDS011;2870;42.680;23.364;2023-01-08T11:05:18;49.27;;;30.07;;
5690;SDS011;2870;42.680;23.364;2023-01-08T11:07:55;51.47;;;31.17;;
5690;SDS011;2870;42.680;23.364;2023-01-08T11:10:24;48.13;;;29.60;;
5690;SDS011;2870;42.680;23.364;2023-01-08T11:12:56;42.80;;;26.10;;
5690;SDS011;2870;42.680;23.364;2023-01-08T11:15:31;52.63;;;27.93;;
5690;SDS011;2870;42.680;23.364;2023-01-08T11:18:10;47.00;;;25.80;;
5690;SDS011;2870;42.680;23.364;2023-01-08T11:20:42;43.63;;;26.77;;
5690;SDS011;2870;42.680;23.364;2023-01-08T11:23:14;37.30;;;24.50;;
5690;SDS011;2870;42.680;23.364;2023-01-08T11:25:47;36.00;;;24.80;;
5690;SDS011;2870;42.680;23.364;2023-01-08T11:28:24;43.60;;;25.57;;
5690;SDS011;2870;42.680;23.364;2023-01-08T11:31:01;39.80;;;24.70;;
5690;SDS011;2870;42.680;23.364;2023-01-08T11:33:36;44.60;;;24.30;;
5690;SDS011;2870;42.680;23.364;2023-01-08T11:36:08;41.77;;;23.70;;
5690;SDS011;2870;42.680;23.364;2023-01-08T11:38:38;38.10;;;25.37;;
5690;SDS011;2870;42.680;23.364;2023-01-08T11:41:08;39.70;;;24.53;;
5690;SDS011;2870;42.680;23.364;2023-01-08T11:43:49;35.30;;;24.10;;
5690;SDS011;2870;42.680;23.364;2023-01-08T11:46:31;37.93;;;22.60;;
5690;SDS011;2870;42.680;23.364;2023-01-08T11:49:09;32.10;;;23.00;;
5690;SDS011;2870;42.680;23.364;2023-01-08T11:51:56;38.17;;;22.50;;
5690;SDS011;2870;42.680;23.364;2023-01-08T11:54:35;32.53;;;19.10;;
5690;SDS011;2870;42.680;23.364;2023-01-08T11:57:16;34.67;;;18.37;;
5690;SDS011;2870;42.680;23.364;2023-01-08T12:00:00;32.63;;;18.07;;
5690;SDS011;2870;42.680;23.364;2023-01-08T12:02:46;32.07;;;18.40;;
5690;SDS011;2870;42.680;23.364;2023-01-08T12:05:25;30.43;;;19.50;;
5690;SDS011;2870;42.680;23.364;2023-01-08T12:07:57;29.90;;;19.33;;
5690;SDS011;2870;42.680;23.364;2023-01-08T12:10:29;34.07;;;19.30;;
5690;SDS011;2870;42.680;23.364;2023-01-08T12:13:06;31.37;;;20.53;;
5690;SDS011;2870;42.680;23.364;2023-01-08T12:15:46;29.10;;;19.00;;
5690;SDS011;2870;42.680;23.364;2023-01-08T12:18:24;32.90;;;22.50;;
5690;SDS011;2870;42.680;23.364;2023-01-08T12:21:04;35.80;;;21.83;;
5690;SDS011;2870;42.680;23.364;2023-01-08T12:26:37;36.57;;;22.00;;
5690;SDS011;2870;42.680;23.364;2023-01-08T12:32:22;35.40;;;21.60;;
5690;SDS011;2870;42.680;23.364;2023-01-08T12:34:54;39.00;;;21.60;;
5690;SDS011;2870;42.680;23.364;2023-01-08T12:37:26;32.07;;;20.87;;
5690;SDS011;2870;42.680;23.364;2023-01-08T12:40:00;34.30;;;20.27;;
5690;SDS011;2870;42.680;23.364;2023-01-08T12:42:32;31.90;;;18.60;;
5690;SDS011;2870;42.680;23.364;2023-01-08T12:45:03;32.33;;;21.47;;
5690;SDS011;2870;42.680;23.364;2023-01-08T12:47:38;35.30;;;21.47;;
5690;SDS011;2870;42.680;23.364;2023-01-08T12:50:18;37.33;;;21.63;;
5690;SDS011;2870;42.680;23.364;2023-01-08T12:52:53;37.40;;;21.47;;
5690;SDS011;2870;42.680;23.364;2023-01-08T12:55:30;34.07;;;19.87;;
5690;SDS011;2870;42.680;23.364;2023-01-08T12:58:08;31.60;;;19.93;;
5690;SDS011;2870;42.680;23.364;2023-01-08T13:00:48;32.53;;;19.67;;
5690;SDS011;2870;42.680;23.364;2023-01-08T13:03:21;28.93;;;19.63;;
5690;SDS011;2870;42.680;23.364;2023-01-08T13:05:51;31.43;;;18.67;;
5690;SDS011;2870;42.680;23.364;2023-01-08T13:08:32;34.63;;;19.60;;
5690;SDS011;2870;42.680;23.364;2023-01-08T13:11:00;32.87;;;19.50;;
5690;SDS011;2870;42.680;23.364;2023-01-08T13:13:29;29.40;;;19.03;;
5690;SDS011;2870;42.680;23.364;2023-01-08T13:16:12;36.20;;;19.40;;
5690;SDS011;2870;42.680;23.364;2023-01-08T13:18:54;31.07;;;19.40;;
5690;SDS011;2870;42.680;23.364;2023-01-08T13:21:29;33.63;;;19.30;;
5690;SDS011;2870;42.680;23.364;2023-01-08T13:24:00;29.60;;;19.83;;
5690;SDS011;2870;42.680;23.364;2023-01-08T13:26:28;29.63;;;19.83;;
5690;SDS011;2870;42.680;23.364;2023-01-08T13:29:05;30.17;;;19.23;;
5690;SDS011;2870;42.680;23.364;2023-01-08T13:31:47;28.27;;;19.40;;
5690;SDS011;2870;42.680;23.364;2023-01-08T13:34:18;31.83;;;19.20;;
5690;SDS011;2870;42.680;23.364;2023-01-08T13:36:56;35.80;;;22.90;;
5690;SDS011;2870;42.680;23.364;2023-01-08T13:39:31;38.20;;;23.53;;
5690;SDS011;2870;42.680;23.364;2023-01-08T13:42:01;45.67;;;27.20;;
5690;SDS011;2870;42.680;23.364;2023-01-08T13:44:38;46.20;;;28.43;;
5690;SDS011;2870;42.680;23.364;2023-01-08T13:47:15;53.57;;;30.37;;
5690;SDS011;2870;42.680;23.364;2023-01-08T13:49:45;62.33;;;37.73;;
5690;SDS011;2870;42.680;23.364;2023-01-08T13:52:29;69.13;;;38.30;;
5690;SDS011;2870;42.680;23.364;2023-01-08T13:55:00;70.63;;;41.77;;
5690;SDS011;2870;42.680;23.364;2023-01-08T13:57:33;65.63;;;36.80;;
5690;SDS011;2870;42.680;23.364;2023-01-08T14:00:04;73.20;;;39.83;;
5690;SDS011;2870;42.680;23.364;2023-01-08T14:02:41;68.60;;;40.67;;
5690;SDS011;2870;42.680;23.364;2023-01-08T14:05:18;70.90;;;39.37;;
5690;SDS011;2870;42.680;23.364;2023-01-08T14:07:50;59.60;;;35.17;;
5690;SDS011;2870;42.680;23.364;2023-01-08T14:10:19;63.80;;;37.00;;
5690;SDS011;2870;42.680;23.364;2023-01-08T14:12:46;64.90;;;37.37;;
5690;SDS011;2870;42.680;23.364;2023-01-08T14:15:16;54.03;;;32.87;;
5690;SDS011;2870;42.680;23.364;2023-01-08T14:17:47;46.10;;;27.30;;
5690;SDS011;2870;42.680;23.364;2023-01-08T14:20:18;47.53;;;28.63;;
5690;SDS011;2870;42.680;23.364;2023-01-08T14:22:50;60.40;;;33.90;;
5690;SDS011;2870;42.680;23.364;2023-01-08T14:25:17;43.50;;;26.10;;
5690;SDS011;2870;42.680;23.364;2023-01-08T14:27:56;51.17;;;29.97;;
5690;SDS011;2870;42.680;23.364;2023-01-08T14:30:24;58.67;;;30.30;;
5690;SDS011;2870;42.680;23.364;2023-01-08T14:32:52;48.27;;;27.00;;
5690;SDS011;2870;42.680;23.364;2023-01-08T14:35:21;43.93;;;26.83;;
5690;SDS011;2870;42.680;23.364;2023-01-08T14:37:53;49.33;;;29.47;;
5690;SDS011;2870;42.680;23.364;2023-01-08T14:40:26;41.23;;;27.00;;
5690;SDS011;2870;42.680;23.364;2023-01-08T14:42:55;48.47;;;27.77;;
5690;SDS011;2870;42.680;23.364;2023-01-08T14:45:25;47.50;;;29.07;;
5690;SDS011;2870;42.680;23.364;2023-01-08T14:47:53;50.47;;;27.47;;
5690;SDS011;2870;42.680;23.364;2023-01-08T14:50:24;45.13;;;27.40;;
5690;SDS011;2870;42.680;23.364;2023-01-08T14:52:53;55.43;;;27.33;;
5690;SDS011;2870;42.680;23.364;2023-01-08T14:55:24;42.23;;;26.27;;
5690;SDS011;2870;42.680;23.364;2023-01-08T14:57:53;46.93;;;25.87;;